WADDWATT

Guest
Details From WADD - Denpasar Ngurah Rai International
To WATT - Kupang El Tari
Flight Number -
Tags generated
Created
Modified
Stats Distance 512 nm / 949 km
Max Altitude 35,000 ft / 10,668 m
Waypoints 6
Social Downloads 3
Likes 0
Share VATSIM

Download

Looking for another format? Having issues loading an existing format? Contact us
Advertisement - Login to hide

Notes

Basic altitude profile: - Ascent Rate: 2500ft/min - Ascent Speed: 250kts - Cruise Altitude: 35000ft - Cruise Speed: 420kts - Descent Rate: 1500ft/min - Descent Speed: 250kts Options: - Use NATs: yes - Use PACOTS: yes - Use low airways: yes - Use high airways: yes

Route

WADD BLI W33 KPG WATT

ID Type Via Altitude (ft/m) Position (lat/lon) Dist (leg/tot) Name
O WADD APT - 0 / 0 -8.74838 / 115.16700 - / 0 nm Denpasar Ngurah Rai International
BLI VOR - 0 / 0 -8.75057 / 115.16300 0 / 0 nm BALI (DEN PASAR)
GOMAT FIX W33 (AWY-HI) 35,000 / 10,668 -9.21421 / 117.64600 149 / 150 nm
NR NDB W33 (AWY-HI) 35,000 / 10,668 -9.67049 / 120.29900 159 / 309 nm WAINGAPU
KPG DME W33 (AWY-HI) 0 / 0 -10.17400 / 123.67800 202 / 511 nm KUPANG VOR-DME
O WATT APT - 0 / 0 -10.17150 / 123.67100 0 / 512 nm Kupang El Tari

Altitude Profile

Advertisement - Login to hide

Weather


0- 5 10 15 20 25 30 35+ Temperature / °C

Clouds and Precipitation
Forecast for 2020-04-10 06:00 UTC. Updated an hour ago

Ground ~20,000 ft ~40,000 ft Winds

WADD

Details ICAO WADD (DPS)
Name Denpasar Ngurah Rai International
Region Indonesia
Timezone Asia/Makassar (UTC+8.0)
Stats Elevation 14 ft / 4 m (AMSL)
Location -8.748380° 115.167000°
Runways 1
Magnetic Variation 0.893° E

METAR

WADD 100400Z 10009KT 9999 FEW017 31/28 Q1011 NOSIG

Decode

TAF

TAF WADD 092300Z 1000/1100 23008KT 9999 SCT017 BECMG 1006/1008 13008KT

Decode

Departure Runways

ID Width Length Bearing (true/mag) Surface Threshold Overrun Markings Lighting
09 148 ft / 45 m 9,852 ft / 3,003 m 87.67° / 86.78° ASPHALT 0 ft / 0 m 197 ft / 60 m PREC-APP EDGE THRESHOLD REIL-OMNI
27 148 ft / 45 m 9,852 ft / 3,003 m 267.67° / 266.77° ASPHALT 0 ft / 0 m 197 ft / 60 m PREC-APP EDGE THRESHOLD MALS REIL-OMNI

WATT

Details ICAO WATT (KOE)
Name Kupang El Tari
Region Indonesia
Timezone Asia/Makassar (UTC+8.0)
Stats Elevation 333 ft / 101 m (AMSL)
Location -10.171500° 123.671000°
Runways 1
Magnetic Variation 1.284° E

METAR

WATT 100400Z 24010KT 7000 3000W BKN015 26/25 Q1012 TEMPO RA

Decode

TAF

TAF WATT 092300Z 1000/1024 16003KT 9999 FEW017 BECMG 1001/1003 30005KT BKN016 PROB40 TEMPO 1004/1008 5000 RA BECMG 10100/1012 09003KT

Decode

Destination Runways

ID Width Length Bearing (true/mag) Surface Threshold Overrun Markings Lighting
07 148 ft / 45 m 8,210 ft / 2,502 m 76.50° / 75.22° ASPHALT 0 ft / 0 m 0 ft / 0 m PREC-APP EDGE THRESHOLD REIL-OMNI
25 148 ft / 45 m 8,210 ft / 2,502 m 256.50° / 255.21° ASPHALT 0 ft / 0 m 0 ft / 0 m PREC-APP EDGE THRESHOLD ALSF-I REIL-OMNI

Popular Alternatives